createdAt,value
2018-07-26T00:00:54.337Z,0.00
2018-07-26T00:01:54.362Z,0.00
2018-07-26T00:02:54.379Z,0.00
2018-07-26T00:03:54.399Z,0.00
2018-07-26T00:04:54.419Z,0.00
2018-07-26T00:05:54.439Z,0.00
2018-07-26T00:06:54.459Z,0.00
2018-07-26T00:07:54.482Z,0.00
2018-07-26T00:08:54.548Z,0.00
2018-07-26T00:09:54.562Z,0.00
2018-07-26T00:10:54.539Z,0.00
2018-07-26T00:11:54.559Z,0.00
2018-07-26T00:12:54.580Z,0.00
2018-07-26T00:13:54.605Z,0.00
2018-07-26T00:14:54.622Z,0.00
2018-07-26T00:15:54.641Z,0.00
2018-07-26T00:16:54.662Z,0.00
2018-07-26T00:17:54.681Z,0.00
2018-07-26T00:18:54.700Z,0.00
2018-07-26T00:19:54.724Z,0.00
2018-07-26T00:20:54.742Z,0.00
2018-07-26T00:21:54.763Z,0.00
2018-07-26T00:22:54.783Z,0.00
2018-07-26T00:23:54.802Z,0.00
2018-07-26T00:24:54.835Z,0.00
2018-07-26T00:25:54.842Z,0.00
2018-07-26T00:26:54.867Z,0.00
2018-07-26T00:27:54.886Z,0.00
2018-07-26T00:28:54.906Z,0.00
2018-07-26T00:29:54.923Z,0.00
2018-07-26T00:30:54.943Z,0.00
2018-07-26T00:31:54.963Z,0.00
2018-07-26T00:32:54.986Z,0.00
2018-07-26T00:33:55.005Z,0.00
2018-07-26T00:34:55.023Z,0.00
2018-07-26T00:35:55.046Z,0.00
2018-07-26T00:36:55.066Z,0.00
2018-07-26T00:37:55.086Z,0.00
2018-07-26T00:38:55.106Z,0.00
2018-07-26T00:39:55.125Z,0.00
2018-07-26T00:40:55.144Z,0.00
2018-07-26T00:41:55.169Z,0.00
2018-07-26T00:42:55.185Z,0.00
2018-07-26T00:43:55.207Z,0.00
2018-07-26T00:44:55.226Z,0.00
2018-07-26T00:45:55.247Z,0.00
2018-07-26T00:46:55.264Z,0.00
2018-07-26T00:47:55.287Z,0.00
2018-07-26T00:48:55.307Z,0.00
2018-07-26T00:49:55.327Z,0.00
2018-07-26T00:50:55.345Z,0.00
2018-07-26T00:51:55.366Z,0.00
2018-07-26T00:52:55.385Z,0.00
2018-07-26T00:53:55.405Z,0.00
2018-07-26T00:54:55.425Z,0.00
2018-07-26T00:55:55.445Z,0.00
2018-07-26T00:56:55.464Z,0.00
2018-07-26T00:57:55.486Z,0.00
2018-07-26T00:58:55.505Z,0.00
2018-07-26T00:59:55.526Z,0.00
2018-07-26T01:00:55.547Z,0.00
2018-07-26T01:01:55.565Z,0.00
2018-07-26T01:02:55.583Z,0.00
2018-07-26T01:03:55.610Z,0.00
2018-07-26T01:04:55.628Z,0.00
2018-07-26T01:05:55.645Z,0.00
2018-07-26T01:06:55.664Z,0.00
2018-07-26T01:07:55.684Z,0.00
2018-07-26T01:08:55.704Z,0.00
2018-07-26T01:09:55.727Z,0.00
2018-07-26T01:10:55.744Z,0.00
2018-07-26T01:11:55.763Z,0.00
2018-07-26T01:12:55.784Z,0.00
2018-07-26T01:13:55.805Z,0.00
2018-07-26T01:14:55.821Z,0.00
2018-07-26T01:15:55.842Z,0.00
2018-07-26T01:16:55.864Z,0.00
2018-07-26T01:17:55.882Z,0.00
2018-07-26T01:18:55.904Z,0.00
2018-07-26T01:19:55.922Z,0.00
2018-07-26T01:20:55.942Z,0.00
2018-07-26T01:21:55.965Z,0.00
2018-07-26T01:22:55.981Z,0.00
2018-07-26T01:23:56.002Z,0.00
2018-07-26T01:24:56.025Z,0.00
2018-07-26T01:25:56.047Z,0.00
2018-07-26T01:26:56.063Z,0.00
2018-07-26T01:27:56.082Z,0.00
2018-07-26T01:28:56.102Z,0.00
2018-07-26T01:29:56.127Z,0.00
2018-07-26T01:30:56.140Z,0.00
2018-07-26T01:31:56.162Z,0.00
2018-07-26T01:32:56.180Z,0.00
2018-07-26T01:33:56.203Z,0.00
2018-07-26T01:34:56.223Z,0.00
2018-07-26T01:35:56.240Z,0.00
2018-07-26T01:36:56.261Z,0.00
2018-07-26T01:37:56.281Z,0.00
2018-07-26T01:38:56.298Z,0.00
2018-07-26T01:39:56.322Z,0.00
2018-07-26T01:40:56.339Z,0.00
2018-07-26T01:41:56.363Z,0.00
2018-07-26T01:42:56.381Z,0.00
2018-07-26T01:43:56.404Z,0.00
2018-07-26T01:44:56.418Z,0.00
2018-07-26T01:45:56.447Z,0.00
2018-07-26T01:46:56.460Z,0.00
2018-07-26T01:47:56.478Z,0.00
2018-07-26T01:48:56.498Z,0.00
2018-07-26T01:49:56.518Z,0.00
2018-07-26T01:50:56.536Z,0.00
2018-07-26T01:51:56.557Z,0.00
2018-07-26T01:52:56.576Z,0.00
2018-07-26T01:53:56.597Z,0.00
2018-07-26T01:54:56.616Z,0.00
2018-07-26T01:55:56.637Z,0.00
2018-07-26T01:56:56.656Z,0.00
2018-07-26T01:57:56.678Z,0.00
2018-07-26T01:58:56.697Z,0.00
2018-07-26T01:59:56.716Z,0.00
2018-07-26T02:00:56.738Z,0.00
2018-07-26T02:01:56.760Z,0.00
2018-07-26T02:02:56.776Z,0.00
2018-07-26T02:03:56.798Z,0.00
2018-07-26T02:04:56.815Z,0.00
2018-07-26T02:05:56.834Z,0.00
2018-07-26T02:06:56.854Z,0.00
2018-07-26T02:07:56.872Z,0.00
2018-07-26T02:08:56.893Z,0.00
2018-07-26T02:09:56.919Z,0.00
2018-07-26T02:10:56.932Z,0.00
2018-07-26T02:11:56.954Z,0.00
2018-07-26T02:12:56.975Z,0.00
2018-07-26T02:13:56.992Z,0.00
2018-07-26T02:14:57.014Z,0.00
2018-07-26T02:15:57.031Z,0.00
2018-07-26T02:16:57.053Z,0.00
2018-07-26T02:17:57.076Z,0.00
2018-07-26T02:18:57.095Z,0.00
2018-07-26T02:19:57.111Z,0.00
2018-07-26T02:20:57.134Z,0.00
2018-07-26T02:21:57.164Z,0.00
2018-07-26T02:22:57.169Z,0.00
2018-07-26T02:23:57.194Z,0.00
2018-07-26T02:24:57.208Z,0.00
2018-07-26T02:25:57.242Z,0.00
2018-07-26T02:26:57.249Z,0.00
2018-07-26T02:27:57.276Z,0.00
2018-07-26T02:28:57.292Z,0.00
2018-07-26T02:29:57.309Z,0.00
2018-07-26T02:30:57.343Z,0.00
2018-07-26T02:31:57.355Z,0.00
2018-07-26T02:32:57.370Z,0.00
2018-07-26T02:33:57.388Z,0.00
2018-07-26T02:34:57.408Z,0.00
2018-07-26T02:35:57.443Z,0.00
2018-07-26T02:36:57.521Z,0.00
2018-07-26T02:37:57.471Z,0.00
2018-07-26T02:38:57.486Z,0.00
2018-07-26T02:39:57.507Z,0.00
2018-07-26T02:40:57.526Z,0.00
2018-07-26T02:41:57.545Z,0.00
2018-07-26T02:42:57.562Z,0.00
2018-07-26T02:43:57.584Z,0.00
2018-07-26T02:44:57.603Z,0.00
2018-07-26T02:45:57.637Z,0.00
2018-07-26T02:46:57.641Z,0.00
2018-07-26T02:47:57.674Z,0.00
2018-07-26T02:48:57.681Z,0.00
2018-07-26T02:49:57.701Z,0.00
2018-07-26T02:50:57.721Z,0.00
2018-07-26T02:51:57.747Z,0.00
2018-07-26T02:52:57.759Z,0.00
2018-07-26T02:53:57.778Z,0.00
2018-07-26T02:54:57.803Z,0.00
2018-07-26T02:55:57.817Z,0.00
2018-07-26T02:56:57.838Z,0.00
2018-07-26T02:57:57.857Z,0.00
2018-07-26T02:58:57.875Z,0.00
2018-07-26T02:59:57.896Z,0.00
2018-07-26T03:00:57.917Z,0.00
2018-07-26T03:01:57.935Z,0.00
2018-07-26T03:02:57.955Z,0.00
2018-07-26T03:03:57.978Z,0.00
2018-07-26T03:04:57.999Z,0.00
2018-07-26T03:05:58.013Z,0.00
2018-07-26T03:06:58.032Z,0.00
2018-07-26T03:07:58.055Z,0.00
2018-07-26T03:08:58.073Z,0.00
2018-07-26T03:09:58.092Z,0.00
2018-07-26T03:10:58.114Z,0.00
2018-07-26T03:11:58.130Z,0.00
2018-07-26T03:12:58.150Z,0.00
2018-07-26T03:13:58.173Z,0.00
2018-07-26T03:14:58.193Z,0.00
2018-07-26T03:15:58.210Z,0.00
2018-07-26T03:16:58.230Z,0.00
2018-07-26T03:17:58.248Z,0.00
2018-07-26T03:18:58.266Z,0.00
2018-07-26T03:19:58.290Z,0.00
2018-07-26T03:20:58.474Z,0.00
2018-07-26T03:21:58.326Z,0.00
2018-07-26T03:22:58.345Z,0.00
2018-07-26T03:23:58.366Z,0.00
2018-07-26T03:24:58.401Z,0.00
2018-07-26T03:25:58.406Z,0.00
2018-07-26T03:26:58.427Z,0.00
2018-07-26T03:27:58.520Z,0.00
2018-07-26T03:28:58.461Z,0.00
2018-07-26T03:29:58.527Z,0.00
2018-07-26T03:30:58.504Z,0.00
2018-07-26T03:31:58.520Z,0.00
2018-07-26T03:32:58.540Z,0.00
2018-07-26T03:33:58.561Z,0.00
2018-07-26T03:34:58.578Z,0.00
2018-07-26T03:35:58.600Z,0.00
2018-07-26T03:36:58.618Z,0.00
2018-07-26T03:37:58.638Z,0.00
2018-07-26T03:38:58.656Z,0.00
2018-07-26T03:39:58.676Z,0.00
2018-07-26T03:40:58.697Z,0.00
2018-07-26T03:41:58.716Z,0.00
2018-07-26T03:42:58.751Z,4.00
2018-07-26T03:43:58.755Z,0.00
2018-07-26T03:44:58.773Z,0.00
2018-07-26T03:45:58.794Z,0.00
2018-07-26T03:46:58.811Z,4.00
2018-07-26T03:47:58.835Z,0.00
2018-07-26T03:48:58.852Z,0.00
2018-07-26T03:49:58.870Z,0.00
2018-07-26T03:50:58.891Z,4.00
2018-07-26T03:51:58.910Z,0.00
2018-07-26T03:52:58.930Z,4.00
2018-07-26T03:53:58.950Z,4.00
2018-07-26T03:54:58.966Z,0.00
2018-07-26T03:55:58.988Z,0.00
2018-07-26T03:56:59.011Z,4.00
2018-07-26T03:57:59.032Z,4.00
2018-07-26T03:58:59.047Z,4.00
2018-07-26T03:59:59.065Z,4.00
2018-07-26T04:00:59.085Z,4.00
2018-07-26T04:01:59.105Z,4.00
2018-07-26T04:02:59.124Z,4.00
2018-07-26T04:03:59.144Z,4.00
2018-07-26T04:04:59.164Z,4.00
2018-07-26T04:05:59.181Z,8.00
2018-07-26T04:06:59.201Z,8.00
2018-07-26T04:07:59.218Z,8.00
2018-07-26T04:08:59.239Z,8.00
2018-07-26T04:09:59.258Z,12.00
2018-07-26T04:10:59.277Z,12.00
2018-07-26T04:11:59.297Z,8.00
2018-07-26T04:12:59.316Z,12.00
2018-07-26T04:13:59.349Z,12.00
2018-07-26T04:14:59.359Z,16.00
2018-07-26T04:15:59.374Z,12.00
2018-07-26T04:16:59.393Z,16.00
2018-07-26T04:17:59.414Z,16.00
2018-07-26T04:18:59.432Z,16.00
2018-07-26T04:19:59.515Z,20.00
2018-07-26T04:20:59.471Z,20.00
2018-07-26T04:21:59.491Z,16.00
2018-07-26T04:22:59.509Z,20.00
2018-07-26T04:23:59.528Z,20.00
2018-07-26T04:24:59.553Z,20.00
2018-07-26T04:25:59.617Z,24.00
2018-07-26T04:26:59.585Z,24.00
2018-07-26T04:27:59.605Z,24.00
2018-07-26T04:28:59.648Z,24.00
2018-07-26T04:29:59.645Z,24.00
2018-07-26T04:30:59.663Z,28.00
2018-07-26T04:31:59.910Z,28.00
2018-07-26T04:32:59.703Z,28.00
2018-07-26T04:33:59.723Z,28.00
2018-07-26T04:34:59.740Z,32.00
2018-07-26T04:35:59.760Z,32.00
2018-07-26T04:36:59.779Z,32.00
2018-07-26T04:37:59.799Z,32.00
2018-07-26T04:38:59.818Z,32.00
2018-07-26T04:39:59.836Z,32.00
2018-07-26T04:40:59.856Z,32.00
2018-07-26T04:41:59.875Z,32.00
2018-07-26T04:42:59.931Z,36.00
2018-07-26T04:43:59.913Z,36.00
2018-07-26T04:44:59.934Z,36.00
2018-07-26T04:45:59.952Z,40.00
2018-07-26T04:46:59.972Z,40.00
2018-07-26T04:47:59.991Z,36.00
2018-07-26T04:49:00.037Z,36.00
2018-07-26T04:50:00.037Z,40.00
2018-07-26T04:51:00.051Z,40.00
2018-07-26T04:52:00.073Z,40.00
2018-07-26T04:53:00.092Z,44.00
2018-07-26T04:54:00.110Z,44.00
2018-07-26T04:55:00.127Z,44.00
2018-07-26T04:56:00.146Z,44.00
2018-07-26T04:57:00.169Z,44.00
2018-07-26T04:58:00.185Z,44.00
2018-07-26T04:59:00.204Z,44.00
2018-07-26T05:00:00.223Z,48.00
2018-07-26T05:01:00.244Z,48.00
2018-07-26T05:02:00.264Z,44.00
2018-07-26T05:03:00.279Z,44.00
2018-07-26T05:04:00.300Z,48.00
2018-07-26T05:05:00.320Z,48.00
2018-07-26T05:06:00.341Z,48.00
2018-07-26T05:07:00.358Z,52.00
2018-07-26T05:08:00.423Z,52.00
2018-07-26T05:09:00.397Z,52.00
2018-07-26T05:10:00.416Z,48.00
2018-07-26T05:11:00.434Z,52.00
2018-07-26T05:12:00.454Z,52.00
2018-07-26T05:13:00.474Z,52.00
2018-07-26T05:14:00.494Z,52.00
2018-07-26T05:15:00.511Z,52.00
2018-07-26T05:16:00.532Z,52.00
2018-07-26T05:17:00.626Z,52.00
2018-07-26T05:18:00.570Z,56.00
2018-07-26T05:19:00.646Z,56.00
2018-07-26T05:20:00.618Z,56.00
2018-07-26T05:21:00.627Z,56.00
2018-07-26T05:22:00.648Z,56.00
2018-07-26T05:23:00.666Z,60.00
2018-07-26T05:24:00.690Z,60.00
2018-07-26T05:25:00.704Z,60.00
2018-07-26T05:26:00.725Z,60.00
2018-07-26T05:27:00.744Z,60.00
2018-07-26T05:28:00.763Z,60.00
2018-07-26T05:29:00.788Z,60.00
2018-07-26T05:30:00.801Z,60.00
2018-07-26T05:31:00.824Z,60.00
2018-07-26T05:32:00.840Z,60.00
2018-07-26T05:33:00.861Z,60.00
2018-07-26T05:34:00.881Z,64.00
2018-07-26T05:35:00.897Z,64.00
2018-07-26T05:36:00.917Z,64.00
2018-07-26T05:37:00.937Z,64.00
2018-07-26T05:38:00.956Z,64.00
2018-07-26T05:39:00.980Z,64.00
2018-07-26T05:40:00.994Z,64.00
2018-07-26T05:41:01.015Z,64.00
2018-07-26T05:42:01.034Z,64.00
2018-07-26T05:43:01.052Z,64.00
2018-07-26T05:44:01.071Z,68.00
2018-07-26T05:45:01.093Z,68.00
2018-07-26T05:46:01.113Z,68.00
2018-07-26T05:47:01.131Z,68.00
2018-07-26T05:48:01.157Z,68.00
2018-07-26T05:49:01.169Z,68.00
2018-07-26T05:50:01.188Z,72.00
2018-07-26T05:51:01.209Z,76.00
2018-07-26T05:52:01.228Z,80.00
2018-07-26T05:53:01.248Z,84.00
2018-07-26T05:54:01.270Z,88.00
2018-07-26T05:55:01.286Z,92.00
2018-07-26T05:56:01.308Z,92.00
2018-07-26T05:57:01.324Z,88.00
2018-07-26T05:58:01.344Z,92.00
2018-07-26T05:59:01.365Z,92.00
2018-07-26T06:00:01.417Z,92.00
2018-07-26T06:01:01.404Z,96.00
2018-07-26T06:02:01.425Z,92.00
2018-07-26T06:03:01.441Z,96.00
2018-07-26T06:04:01.465Z,96.00
2018-07-26T06:05:01.480Z,96.00
2018-07-26T06:06:01.500Z,96.00
2018-07-26T06:07:01.525Z,96.00
2018-07-26T06:08:01.540Z,100.00
2018-07-26T06:09:01.562Z,100.00
2018-07-26T06:10:01.578Z,100.00
2018-07-26T06:11:01.599Z,100.00
2018-07-26T06:12:01.618Z,100.00
2018-07-26T06:13:01.639Z,104.00
2018-07-26T06:14:01.656Z,104.00
2018-07-26T06:15:01.681Z,104.00
2018-07-26T06:16:01.797Z,104.00
2018-07-26T06:17:01.718Z,104.00
2018-07-26T06:18:01.736Z,104.00
2018-07-26T06:19:01.756Z,108.00
2018-07-26T06:20:01.775Z,108.00
2018-07-26T06:21:01.795Z,108.00
2018-07-26T06:22:01.818Z,108.00
2018-07-26T06:23:01.835Z,108.00
2018-07-26T06:24:01.854Z,108.00
2018-07-26T06:25:01.879Z,112.00
2018-07-26T06:26:01.901Z,108.00
2018-07-26T06:27:01.915Z,108.00
2018-07-26T06:28:01.959Z,112.00
2018-07-26T06:29:01.955Z,112.00
2018-07-26T06:30:01.978Z,112.00
2018-07-26T06:31:01.997Z,112.00
2018-07-26T06:32:02.014Z,112.00
2018-07-26T06:33:02.036Z,112.00
2018-07-26T06:34:02.057Z,116.00
2018-07-26T06:35:02.077Z,116.00
2018-07-26T06:36:02.095Z,116.00
2018-07-26T06:37:02.115Z,120.00
2018-07-26T06:38:02.136Z,120.00
2018-07-26T06:39:02.154Z,120.00
2018-07-26T06:40:02.177Z,120.00
2018-07-26T06:41:02.196Z,124.00
2018-07-26T06:42:02.219Z,124.00
2018-07-26T06:43:02.235Z,124.00
2018-07-26T06:44:02.256Z,124.00
2018-07-26T06:45:02.276Z,124.00
2018-07-26T06:46:02.294Z,124.00
2018-07-26T06:47:02.341Z,124.00
2018-07-26T06:48:02.337Z,128.00
2018-07-26T06:49:02.365Z,128.00
2018-07-26T06:50:02.377Z,128.00
2018-07-26T06:51:02.395Z,128.00
2018-07-26T06:52:02.417Z,132.00
2018-07-26T06:53:02.438Z,132.00
2018-07-26T06:54:02.459Z,128.00
2018-07-26T06:55:02.486Z,132.00
2018-07-26T06:56:02.496Z,132.00
2018-07-26T06:57:02.523Z,136.00
2018-07-26T06:58:02.537Z,136.00
2018-07-26T06:59:02.556Z,140.00
2018-07-26T07:00:02.577Z,136.00
2018-07-26T07:01:02.596Z,140.00
2018-07-26T07:02:02.762Z,140.00
2018-07-26T07:03:02.638Z,144.00
2018-07-26T07:04:02.657Z,140.00
2018-07-26T07:05:02.680Z,144.00
2018-07-26T07:06:02.702Z,144.00
2018-07-26T07:07:02.719Z,144.00
2018-07-26T07:08:02.737Z,144.00
2018-07-26T07:09:02.759Z,148.00
2018-07-26T07:10:02.790Z,152.00
2018-07-26T07:11:02.798Z,152.00
2018-07-26T07:12:02.821Z,152.00
2018-07-26T07:13:02.841Z,156.00
2018-07-26T07:14:02.861Z,152.00
2018-07-26T07:15:02.880Z,156.00
2018-07-26T07:16:02.902Z,156.00
2018-07-26T07:17:02.924Z,160.00
2018-07-26T07:18:02.941Z,156.00
2018-07-26T07:19:02.962Z,160.00
2018-07-26T07:20:02.982Z,164.00
2018-07-26T07:21:03.003Z,164.00
2018-07-26T07:22:03.068Z,164.00
2018-07-26T07:23:03.044Z,168.00
2018-07-26T07:24:03.065Z,172.00
2018-07-26T07:25:03.083Z,168.00
2018-07-26T07:26:03.173Z,172.00
2018-07-26T07:27:03.126Z,176.00
2018-07-26T07:28:03.146Z,172.00
2018-07-26T07:29:03.165Z,176.00
2018-07-26T07:30:03.187Z,180.00
2018-07-26T07:31:03.206Z,176.00
2018-07-26T07:32:03.224Z,180.00
2018-07-26T07:33:03.247Z,180.00
2018-07-26T07:34:03.265Z,184.00
2018-07-26T07:35:03.287Z,188.00
2018-07-26T07:36:03.310Z,188.00
2018-07-26T07:37:03.328Z,192.00
2018-07-26T07:38:03.350Z,196.00
2018-07-26T07:39:03.368Z,196.00
2018-07-26T07:40:03.392Z,196.00
2018-07-26T07:41:03.410Z,200.00
2018-07-26T07:42:03.432Z,200.00
2018-07-26T07:43:03.452Z,204.00
2018-07-26T07:44:03.470Z,208.00
2018-07-26T07:45:03.490Z,212.00
2018-07-26T07:46:03.510Z,212.00
2018-07-26T07:47:03.609Z,212.00
2018-07-26T07:48:03.551Z,216.00
2018-07-26T07:49:03.571Z,220.00
2018-07-26T07:50:03.592Z,220.00
2018-07-26T07:51:03.612Z,224.00
2018-07-26T07:52:03.634Z,228.00
2018-07-26T07:53:03.654Z,228.00
2018-07-26T07:54:03.677Z,232.00
2018-07-26T07:55:03.694Z,236.00
2018-07-26T07:56:03.717Z,240.00
2018-07-26T07:57:03.739Z,240.00
2018-07-26T07:58:03.755Z,244.00
2018-07-26T07:59:03.778Z,248.00
2018-07-26T08:00:03.797Z,252.00
2018-07-26T08:01:03.819Z,256.00
2018-07-26T08:02:03.837Z,260.00
2018-07-26T08:03:03.859Z,260.00
2018-07-26T08:04:03.880Z,264.00
2018-07-26T08:05:03.901Z,268.00
2018-07-26T08:06:03.922Z,272.00
2018-07-26T08:07:03.943Z,272.00
2018-07-26T08:08:03.969Z,276.00
2018-07-26T08:09:03.985Z,280.00
2018-07-26T08:10:04.007Z,284.00
2018-07-26T08:11:04.029Z,288.00
2018-07-26T08:12:04.051Z,292.00
2018-07-26T08:13:04.068Z,296.00
2018-07-26T08:14:04.090Z,296.00
2018-07-26T08:15:04.112Z,300.00
2018-07-26T08:16:04.131Z,304.00
2018-07-26T08:17:04.154Z,312.00
2018-07-26T08:18:04.175Z,312.00
2018-07-26T08:19:04.197Z,312.00
2018-07-26T08:20:04.215Z,316.00
2018-07-26T08:21:04.240Z,320.00
2018-07-26T08:22:04.257Z,328.00
2018-07-26T08:23:04.278Z,328.00
2018-07-26T08:24:04.304Z,336.00
2018-07-26T08:25:04.321Z,336.00
2018-07-26T08:26:04.343Z,344.00
2018-07-26T08:27:04.363Z,348.00
2018-07-26T08:28:04.385Z,352.00
2018-07-26T08:29:04.407Z,352.00
2018-07-26T08:30:04.427Z,360.00
2018-07-26T08:31:04.448Z,364.00
2018-07-26T08:32:04.471Z,368.00
2018-07-26T08:33:04.490Z,372.00
2018-07-26T08:34:04.514Z,376.00
2018-07-26T08:35:04.588Z,384.00
2018-07-26T08:36:04.555Z,384.00
2018-07-26T08:37:04.575Z,392.00
2018-07-26T08:38:04.599Z,392.00
2018-07-26T08:39:04.618Z,400.00
2018-07-26T08:40:04.643Z,408.00
2018-07-26T08:41:04.688Z,412.00
2018-07-26T08:42:04.684Z,420.00
2018-07-26T08:43:04.704Z,424.00
2018-07-26T08:44:04.727Z,428.00
2018-07-26T08:45:04.748Z,432.00
2018-07-26T08:46:04.773Z,440.00
2018-07-26T08:47:04.793Z,444.00
2018-07-26T08:48:04.877Z,444.00
2018-07-26T08:49:04.835Z,452.00
2018-07-26T08:50:04.857Z,460.00
2018-07-26T08:51:04.879Z,468.00
2018-07-26T08:52:04.917Z,468.00
2018-07-26T08:53:04.921Z,472.00
2018-07-26T08:54:04.951Z,480.00
2018-07-26T08:55:04.964Z,484.00
2018-07-26T08:56:04.985Z,488.00
2018-07-26T08:57:05.009Z,496.00
2018-07-26T08:58:05.030Z,500.00
2018-07-26T08:59:05.056Z,508.00
2018-07-26T09:00:05.076Z,512.00
2018-07-26T09:01:05.145Z,512.00
2018-07-26T09:02:05.119Z,520.00
2018-07-26T09:03:05.138Z,524.00
2018-07-26T09:04:05.163Z,532.00
2018-07-26T09:05:05.184Z,540.00
2018-07-26T09:06:05.215Z,544.00
2018-07-26T09:07:05.227Z,552.00
2018-07-26T09:08:05.251Z,560.00
2018-07-26T09:09:05.272Z,564.00
2018-07-26T09:10:05.296Z,572.00
2018-07-26T09:11:05.317Z,580.00
2018-07-26T09:12:05.342Z,584.00
2018-07-26T09:13:05.360Z,592.00
2018-07-26T09:14:05.383Z,600.00
2018-07-26T09:15:05.404Z,604.00
2018-07-26T09:16:05.428Z,608.00
2018-07-26T09:17:05.449Z,612.00
2018-07-26T09:18:05.481Z,620.00
2018-07-26T09:19:05.495Z,624.00
2018-07-26T09:20:05.516Z,628.00
2018-07-26T09:21:05.536Z,636.00
2018-07-26T09:22:05.567Z,640.00
2018-07-26T09:23:05.581Z,652.00
2018-07-26T09:24:05.604Z,656.00
2018-07-26T09:25:05.626Z,660.00
2018-07-26T09:26:05.682Z,668.00
2018-07-26T09:27:05.671Z,676.00
2018-07-26T09:28:05.693Z,684.00
2018-07-26T09:29:05.716Z,688.00
2018-07-26T09:30:05.742Z,700.00
2018-07-26T09:31:05.768Z,704.00
2018-07-26T09:32:05.787Z,708.00
2018-07-26T09:33:05.901Z,716.00
2018-07-26T09:34:05.829Z,724.00
2018-07-26T09:35:05.852Z,732.00
2018-07-26T09:36:05.875Z,740.00
2018-07-26T09:37:05.900Z,740.00
2018-07-26T09:38:05.921Z,756.00
2018-07-26T09:39:05.946Z,760.00
2018-07-26T09:40:05.967Z,768.00
2018-07-26T09:41:06.010Z,776.00
2018-07-26T09:42:06.018Z,788.00
2018-07-26T09:43:06.035Z,796.00
2018-07-26T09:44:06.059Z,800.00
2018-07-26T09:45:06.084Z,808.00
2018-07-26T09:46:06.104Z,816.00
2018-07-26T09:47:06.126Z,828.00
2018-07-26T09:48:06.150Z,832.00
2018-07-26T09:49:06.173Z,836.00
2018-07-26T09:50:06.203Z,844.00
2018-07-26T09:51:06.222Z,856.00
2018-07-26T09:52:06.242Z,860.00
2018-07-26T09:53:06.264Z,860.00
2018-07-26T09:54:06.288Z,868.00
2018-07-26T09:55:06.312Z,876.00
2018-07-26T09:56:06.334Z,880.00
2018-07-26T09:57:06.359Z,884.00
2018-07-26T09:58:06.381Z,892.00
2018-07-26T09:59:06.407Z,900.00
2018-07-26T10:00:06.431Z,904.00
2018-07-26T10:01:06.451Z,916.00
2018-07-26T10:02:06.474Z,924.00
2018-07-26T10:03:06.502Z,928.00
2018-07-26T10:04:06.521Z,940.00
2018-07-26T10:05:06.546Z,944.00
2018-07-26T10:06:06.569Z,948.00
2018-07-26T10:07:06.594Z,952.00
2018-07-26T10:08:06.617Z,956.00
2018-07-26T10:09:06.640Z,960.00
2018-07-26T10:10:06.664Z,968.00
2018-07-26T10:11:06.687Z,980.00
2018-07-26T10:12:06.710Z,984.00
2018-07-26T10:13:06.734Z,992.00
2018-07-26T10:14:06.798Z,1000.00
2018-07-26T10:15:06.855Z,1004.00
2018-07-26T10:16:06.808Z,1008.00
2018-07-26T10:17:06.837Z,1016.00
2018-07-26T10:18:06.855Z,1020.00
2018-07-26T10:19:06.883Z,1028.00
2018-07-26T10:20:06.955Z,1032.00
2018-07-26T10:21:06.931Z,1040.00
2018-07-26T10:22:06.952Z,1044.00
2018-07-26T10:23:06.980Z,1048.00
2018-07-26T10:24:07.005Z,1052.00
2018-07-26T10:25:07.026Z,1060.00
2018-07-26T10:26:07.053Z,1064.00
2018-07-26T10:27:07.081Z,1072.00
2018-07-26T10:28:07.101Z,1072.00
2018-07-26T10:29:07.125Z,1080.00
2018-07-26T10:30:07.148Z,1088.00
2018-07-26T10:31:07.175Z,1100.00
2018-07-26T10:32:07.211Z,1096.00
2018-07-26T10:33:07.257Z,1100.00
2018-07-26T10:34:07.258Z,1112.00
2018-07-26T10:35:07.275Z,1112.00
2018-07-26T10:36:07.303Z,1124.00
2018-07-26T10:37:07.324Z,1128.00
2018-07-26T10:38:07.353Z,1136.00
2018-07-26T10:39:07.373Z,1136.00
2018-07-26T10:40:07.400Z,1140.00
2018-07-26T10:41:07.424Z,1148.00
2018-07-26T10:42:07.448Z,1148.00
2018-07-26T10:43:07.477Z,1156.00
2018-07-26T10:44:07.501Z,1160.00
2018-07-26T10:45:07.525Z,1164.00
2018-07-26T10:46:07.549Z,1168.00
2018-07-26T10:47:07.576Z,1172.00
2018-07-26T10:48:07.602Z,1180.00
2018-07-26T10:49:07.628Z,1180.00
2018-07-26T10:50:07.651Z,1184.00
2018-07-26T10:51:07.676Z,1184.00
2018-07-26T10:52:07.703Z,1192.00
2018-07-26T10:53:07.726Z,1196.00
2018-07-26T10:54:07.756Z,1200.00
2018-07-26T10:55:07.778Z,1204.00
2018-07-26T10:56:07.804Z,1208.00
2018-07-26T10:57:07.828Z,1212.00
2018-07-26T10:58:07.856Z,1212.00
2018-07-26T10:59:07.881Z,1216.00
2018-07-26T11:00:07.904Z,1216.00
2018-07-26T11:01:07.935Z,1224.00
2018-07-26T11:02:07.959Z,1220.00
2018-07-26T11:03:07.983Z,1228.00
2018-07-26T11:04:08.008Z,1232.00
2018-07-26T11:05:08.035Z,1236.00
2018-07-26T11:06:08.060Z,1244.00
2018-07-26T11:07:08.086Z,1248.00
2018-07-26T11:08:08.111Z,1252.00
2018-07-26T11:09:08.138Z,1256.00
2018-07-26T11:10:08.165Z,1264.00
2018-07-26T11:11:08.190Z,1268.00
2018-07-26T11:12:08.215Z,1272.00
2018-07-26T11:13:08.241Z,1272.00
2018-07-26T11:14:08.302Z,1280.00
2018-07-26T11:15:08.315Z,1284.00
2018-07-26T11:16:08.320Z,1284.00
2018-07-26T11:17:08.345Z,1288.00
2018-07-26T11:18:08.369Z,1288.00
2018-07-26T11:19:08.489Z,1296.00
2018-07-26T11:20:08.422Z,1296.00
2018-07-26T11:21:08.448Z,1300.00
2018-07-26T11:22:08.474Z,1304.00
2018-07-26T11:23:08.499Z,1308.00
2018-07-26T11:24:08.529Z,1308.00
2018-07-26T11:25:08.552Z,1312.00
2018-07-26T11:26:08.580Z,1316.00
2018-07-26T11:27:08.663Z,1320.00
2018-07-26T11:28:08.629Z,1320.00
2018-07-26T11:29:08.655Z,1324.00
2018-07-26T11:30:08.683Z,1328.00
2018-07-26T11:31:08.708Z,1328.00
2018-07-26T11:32:08.733Z,1332.00
2018-07-26T11:33:08.761Z,1336.00
2018-07-26T11:34:08.786Z,1340.00
2018-07-26T11:35:08.815Z,1340.00
2018-07-26T11:36:08.842Z,1340.00
2018-07-26T11:37:08.866Z,1344.00
2018-07-26T11:38:08.892Z,1344.00
2018-07-26T11:39:08.921Z,1348.00
2018-07-26T11:40:08.945Z,1352.00
2018-07-26T11:41:08.970Z,1352.00
2018-07-26T11:42:08.996Z,1356.00
2018-07-26T11:43:09.022Z,1364.00
2018-07-26T11:44:09.048Z,1356.00
2018-07-26T11:45:09.074Z,1364.00
2018-07-26T11:46:09.101Z,1364.00
2018-07-26T11:47:09.125Z,1368.00
2018-07-26T11:48:09.153Z,1372.00
2018-07-26T11:49:09.176Z,1376.00
2018-07-26T11:50:09.257Z,1380.00
2018-07-26T11:51:09.231Z,1376.00
2018-07-26T11:52:09.257Z,1380.00
2018-07-26T11:53:09.283Z,1380.00
2018-07-26T11:54:09.308Z,1384.00
2018-07-26T11:55:09.335Z,1384.00
2018-07-26T11:56:09.361Z,1384.00
2018-07-26T11:57:09.387Z,1388.00
2018-07-26T11:58:09.460Z,1392.00
2018-07-26T11:59:09.441Z,1392.00
2018-07-26T12:00:09.469Z,1396.00
2018-07-26T12:01:09.499Z,1400.00
2018-07-26T12:02:09.521Z,1400.00
2018-07-26T12:03:09.548Z,1400.00
2018-07-26T12:04:09.574Z,1408.00
2018-07-26T12:05:09.604Z,1404.00
2018-07-26T12:06:09.649Z,1408.00
2018-07-26T12:07:09.658Z,1408.00
2018-07-26T12:08:09.733Z,1408.00
2018-07-26T12:09:09.708Z,1412.00
2018-07-26T12:10:09.736Z,1420.00
2018-07-26T12:11:09.761Z,1420.00
2018-07-26T12:12:09.793Z,1420.00
2018-07-26T12:13:09.814Z,1420.00
2018-07-26T12:14:09.843Z,1424.00
2018-07-26T12:15:09.868Z,1428.00
2018-07-26T12:16:09.896Z,1428.00
2018-07-26T12:17:09.921Z,1432.00
2018-07-26T12:18:09.953Z,1432.00
2018-07-26T12:19:09.978Z,1436.00
2018-07-26T12:20:10.006Z,1436.00
2018-07-26T12:21:10.037Z,1432.00
2018-07-26T12:22:10.064Z,1444.00
2018-07-26T12:23:10.162Z,1440.00
2018-07-26T12:24:10.111Z,1444.00
2018-07-26T12:25:10.139Z,1448.00
2018-07-26T12:26:10.168Z,1444.00
2018-07-26T12:27:10.271Z,1444.00
2018-07-26T12:28:10.221Z,1448.00
2018-07-26T12:29:10.289Z,1448.00
2018-07-26T12:30:10.275Z,1452.00
2018-07-26T12:31:10.301Z,1452.00
2018-07-26T12:32:10.325Z,1460.00
2018-07-26T12:33:10.356Z,1464.00
2018-07-26T12:34:10.382Z,1464.00
2018-07-26T12:35:10.407Z,1472.00
2018-07-26T12:36:10.433Z,1468.00
2018-07-26T12:37:10.469Z,1472.00
2018-07-26T12:38:10.494Z,1472.00
2018-07-26T12:39:10.515Z,1476.00
2018-07-26T12:40:10.541Z,1472.00
2018-07-26T12:41:10.595Z,1476.00
2018-07-26T12:42:10.597Z,1480.00
2018-07-26T12:43:10.623Z,1480.00
2018-07-26T12:44:10.651Z,1484.00